Phoenix, Arizona
Current Conditions -  °F | °C
As of 11:51 PM on Saturday 20 Dec 2014 (Local Time) from KPHX Reporting Station
Broken Clouds Broken Clouds  
Wind Chill: 52°   Ceiling: 25000
Heat Index: 52°   Visibility: 10mi
Dew Point: 42°   Wind: 6mph
Humidity: 69%   Direction: 110°ESE
Pressure: 30.1"   Gusts: NA
Location:  33.45°N, 112.08°W
Report Text: KPHX 210651Z 11005KT 10SM FEW200 BKN250 11/06 A3010 RMK AO2 SLP185 T01110056 401890072
Loading
Personal Weather Stations






























Interactive Weather Map New forecast layout! Learn more

10-Day Weather Forecast

Advertisements
Track Severe Weather on mobile